sensor_id;sensor_type;location;lat;lon;timestamp;pressure;altitude;pressure_sealevel;temperature;humidity
18500;BME280;9379;52.134;11.576;2023-04-26T00:01:55;100891.34;;;8.81;74.06
18500;BME280;9379;52.134;11.576;2023-04-26T00:04:23;100895.09;;;9.00;73.23
18500;BME280;9379;52.134;11.576;2023-04-26T00:06:49;100898.84;;;9.09;73.75
18500;BME280;9379;52.134;11.576;2023-04-26T00:09:17;100894.03;;;9.03;72.94
18500;BME280;9379;52.134;11.576;2023-04-26T00:11:44;100899.69;;;9.10;72.25
18500;BME280;9379;52.134;11.576;2023-04-26T00:14:11;100902.81;;;9.37;72.74
18500;BME280;9379;52.134;11.576;2023-04-26T00:16:38;100896.16;;;8.52;74.43
18500;BME280;9379;52.134;11.576;2023-04-26T00:19:05;100897.00;;;8.87;73.12
18500;BME280;9379;52.134;11.576;2023-04-26T00:21:32;100903.34;;;8.73;75.01
18500;BME280;9379;52.134;11.576;2023-04-26T00:23:58;100900.69;;;8.73;74.74
18500;BME280;9379;52.134;11.576;2023-04-26T00:26:26;100896.63;;;8.81;73.74
18500;BME280;9379;52.134;11.576;2023-04-26T00:28:54;100909.91;;;8.92;72.66
18500;BME280;9379;52.134;11.576;2023-04-26T00:31:20;100897.69;;;8.78;73.09
18500;BME280;9379;52.134;11.576;2023-04-26T00:33:47;100904.50;;;9.04;72.49
18500;BME280;9379;52.134;11.576;2023-04-26T00:36:14;100896.88;;;9.00;73.68
18500;BME280;9379;52.134;11.576;2023-04-26T00:38:43;100903.56;;;8.35;75.31
18500;BME280;9379;52.134;11.576;2023-04-26T00:41:10;100909.94;;;7.96;77.14
18500;BME280;9379;52.134;11.576;2023-04-26T00:43:38;100905.78;;;8.29;77.31
18500;BME280;9379;52.134;11.576;2023-04-26T00:46:05;100899.75;;;8.86;75.23
18500;BME280;9379;52.134;11.576;2023-04-26T00:48:33;100908.59;;;9.09;74.07
18500;BME280;9379;52.134;11.576;2023-04-26T00:51:00;100905.78;;;8.29;76.71
18500;BME280;9379;52.134;11.576;2023-04-26T00:53:27;100910.91;;;8.19;77.33
18500;BME280;9379;52.134;11.576;2023-04-26T00:55:55;100913.56;;;8.43;76.85
18500;BME280;9379;52.134;11.576;2023-04-26T00:58:22;100912.28;;;8.48;75.97
18500;BME280;9379;52.134;11.576;2023-04-26T01:00:50;100899.47;;;8.18;76.09
18500;BME280;9379;52.134;11.576;2023-04-26T01:03:18;100913.47;;;8.68;76.56
18500;BME280;9379;52.134;11.576;2023-04-26T01:05:45;100915.34;;;8.66;75.34
18500;BME280;9379;52.134;11.576;2023-04-26T01:08:12;100915.13;;;8.34;76.50
18500;BME280;9379;52.134;11.576;2023-04-26T01:10:41;100913.78;;;8.16;77.19
18500;BME280;9379;52.134;11.576;2023-04-26T01:13:08;100908.63;;;8.38;77.29
18500;BME280;9379;52.134;11.576;2023-04-26T01:15:36;100906.91;;;7.89;77.85
18500;BME280;9379;52.134;11.576;2023-04-26T01:18:05;100917.03;;;8.19;78.00
18500;BME280;9379;52.134;11.576;2023-04-26T01:20:31;100925.00;;;7.83;78.56
18500;BME280;9379;52.134;11.576;2023-04-26T01:23:00;100923.59;;;7.53;78.60
18500;BME280;9379;52.134;11.576;2023-04-26T01:25:27;100924.56;;;7.89;78.23
18500;BME280;9379;52.134;11.576;2023-04-26T01:27:54;100920.59;;;7.71;78.80
18500;BME280;9379;52.134;11.576;2023-04-26T01:30:21;100919.91;;;8.16;78.29
18500;BME280;9379;52.134;11.576;2023-04-26T01:32:47;100919.56;;;8.58;75.81
18500;BME280;9379;52.134;11.576;2023-04-26T01:35:14;100926.41;;;8.12;76.47
18500;BME280;9379;52.134;11.576;2023-04-26T01:37:42;100934.00;;;8.17;76.80
18500;BME280;9379;52.134;11.576;2023-04-26T01:40:11;100921.19;;;7.74;78.37
18500;BME280;9379;52.134;11.576;2023-04-26T01:42:38;100924.72;;;8.11;77.08
18500;BME280;9379;52.134;11.576;2023-04-26T01:45:05;100927.66;;;7.83;78.16
18500;BME280;9379;52.134;11.576;2023-04-26T01:47:32;100926.72;;;8.08;76.79
18500;BME280;9379;52.134;11.576;2023-04-26T01:49:59;100928.50;;;7.83;77.88
18500;BME280;9379;52.134;11.576;2023-04-26T01:52:26;100934.06;;;7.42;78.98
18500;BME280;9379;52.134;11.576;2023-04-26T01:54:53;100927.06;;;7.67;79.65
18500;BME280;9379;52.134;11.576;2023-04-26T01:57:21;100928.94;;;8.14;77.47
18500;BME280;9379;52.134;11.576;2023-04-26T01:59:48;100929.22;;;8.35;77.35
18500;BME280;9379;52.134;11.576;2023-04-26T02:02:15;100931.75;;;8.00;77.65
18500;BME280;9379;52.134;11.576;2023-04-26T02:04:45;100939.00;;;7.72;79.26
18500;BME280;9379;52.134;11.576;2023-04-26T02:07:12;100937.97;;;6.98;80.89
18500;BME280;9379;52.134;11.576;2023-04-26T02:09:38;100938.09;;;6.97;81.40
18500;BME280;9379;52.134;11.576;2023-04-26T02:12:05;100938.91;;;7.61;80.74
18500;BME280;9379;52.134;11.576;2023-04-26T02:14:34;100940.09;;;7.57;79.87
18500;BME280;9379;52.134;11.576;2023-04-26T02:17:01;100928.53;;;7.71;80.42
18500;BME280;9379;52.134;11.576;2023-04-26T02:19:28;100936.16;;;7.50;79.76
18500;BME280;9379;52.134;11.576;2023-04-26T02:21:56;100936.31;;;7.85;78.64
18500;BME280;9379;52.134;11.576;2023-04-26T02:24:23;100933.94;;;7.56;78.41
18500;BME280;9379;52.134;11.576;2023-04-26T02:26:50;100934.97;;;7.79;79.14
18500;BME280;9379;52.134;11.576;2023-04-26T02:29:17;100943.78;;;7.29;79.79
18500;BME280;9379;52.134;11.576;2023-04-26T02:31:45;100938.53;;;7.91;77.72
18500;BME280;9379;52.134;11.576;2023-04-26T02:34:13;100937.38;;;8.19;77.01
18500;BME280;9379;52.134;11.576;2023-04-26T02:36:41;100941.84;;;7.82;78.75
18500;BME280;9379;52.134;11.576;2023-04-26T02:39:07;100934.63;;;7.84;78.58
18500;BME280;9379;52.134;11.576;2023-04-26T02:41:34;100942.00;;;7.55;78.81
18500;BME280;9379;52.134;11.576;2023-04-26T02:44:01;100935.22;;;7.25;79.39
18500;BME280;9379;52.134;11.576;2023-04-26T02:46:28;100945.78;;;7.76;78.92
18500;BME280;9379;52.134;11.576;2023-04-26T02:48:56;100929.97;;;7.87;76.90
18500;BME280;9379;52.134;11.576;2023-04-26T02:51:23;100918.66;;;7.73;78.96
18500;BME280;9379;52.134;11.576;2023-04-26T02:53:49;100927.53;;;7.84;77.63
18500;BME280;9379;52.134;11.576;2023-04-26T02:56:16;100929.59;;;8.05;76.75
18500;BME280;9379;52.134;11.576;2023-04-26T02:58:43;100921.88;;;7.52;78.58
18500;BME280;9379;52.134;11.576;2023-04-26T03:01:11;100936.47;;;7.58;79.80
18500;BME280;9379;52.134;11.576;2023-04-26T03:03:39;100929.88;;;7.89;78.98
18500;BME280;9379;52.134;11.576;2023-04-26T03:06:07;100926.31;;;7.77;79.53
18500;BME280;9379;52.134;11.576;2023-04-26T03:08:34;100942.81;;;7.68;78.64
18500;BME280;9379;52.134;11.576;2023-04-26T03:11:01;100915.22;;;7.47;78.70
18500;BME280;9379;52.134;11.576;2023-04-26T03:13:28;100931.81;;;7.61;78.24
18500;BME280;9379;52.134;11.576;2023-04-26T03:15:54;100932.69;;;7.49;79.68
18500;BME280;9379;52.134;11.576;2023-04-26T03:18:21;100933.63;;;7.61;79.86
18500;BME280;9379;52.134;11.576;2023-04-26T03:20:48;100921.69;;;7.55;78.99
18500;BME280;9379;52.134;11.576;2023-04-26T03:23:17;100923.75;;;7.63;78.70
18500;BME280;9379;52.134;11.576;2023-04-26T03:25:44;100934.59;;;7.35;78.90
18500;BME280;9379;52.134;11.576;2023-04-26T03:28:11;100930.38;;;7.32;79.08
18500;BME280;9379;52.134;11.576;2023-04-26T03:30:38;100920.00;;;7.54;78.47
18500;BME280;9379;52.134;11.576;2023-04-26T03:33:04;100905.81;;;7.17;78.84
18500;BME280;9379;52.134;11.576;2023-04-26T03:35:31;100931.22;;;7.07;81.84
18500;BME280;9379;52.134;11.576;2023-04-26T03:38:00;100932.25;;;7.05;80.36
18500;BME280;9379;52.134;11.576;2023-04-26T03:40:30;100934.94;;;7.30;80.16
18500;BME280;9379;52.134;11.576;2023-04-26T03:42:57;100920.66;;;7.32;80.53
18500;BME280;9379;52.134;11.576;2023-04-26T03:45:24;100933.03;;;7.32;80.30
18500;BME280;9379;52.134;11.576;2023-04-26T03:47:51;100931.00;;;7.36;79.02
18500;BME280;9379;52.134;11.576;2023-04-26T03:50:18;100928.88;;;7.02;81.13
18500;BME280;9379;52.134;11.576;2023-04-26T03:52:45;100928.03;;;7.02;80.90
18500;BME280;9379;52.134;11.576;2023-04-26T03:55:11;100938.94;;;7.10;81.84
18500;BME280;9379;52.134;11.576;2023-04-26T03:57:39;100938.19;;;7.46;80.60
18500;BME280;9379;52.134;11.576;2023-04-26T04:00:07;100944.13;;;7.24;80.12
18500;BME280;9379;52.134;11.576;2023-04-26T04:02:36;100946.34;;;7.56;78.92
18500;BME280;9379;52.134;11.576;2023-04-26T04:05:03;100946.56;;;7.53;80.15
18500;BME280;9379;52.134;11.576;2023-04-26T04:07:30;100945.47;;;7.17;80.50
18500;BME280;9379;52.134;11.576;2023-04-26T04:09:57;100922.84;;;7.00;79.34
18500;BME280;9379;52.134;11.576;2023-04-26T04:12:24;100942.88;;;7.30;79.75
18500;BME280;9379;52.134;11.576;2023-04-26T04:14:52;100947.94;;;7.33;79.53
18500;BME280;9379;52.134;11.576;2023-04-26T04:17:19;100943.78;;;7.54;79.33
18500;BME280;9379;52.134;11.576;2023-04-26T04:19:46;100951.38;;;7.72;78.59
18500;BME280;9379;52.134;11.576;2023-04-26T04:22:13;100940.69;;;7.73;78.69
18500;BME280;9379;52.134;11.576;2023-04-26T04:24:39;100949.00;;;7.43;79.44
18500;BME280;9379;52.134;11.576;2023-04-26T04:27:07;100943.72;;;7.30;78.84
18500;BME280;9379;52.134;11.576;2023-04-26T04:29:33;100951.50;;;7.57;79.16
18500;BME280;9379;52.134;11.576;2023-04-26T04:32:02;100955.19;;;7.17;81.32
18500;BME280;9379;52.134;11.576;2023-04-26T04:34:33;100958.72;;;7.55;79.40
18500;BME280;9379;52.134;11.576;2023-04-26T04:37:00;100966.09;;;7.76;80.08
18500;BME280;9379;52.134;11.576;2023-04-26T04:39:28;100956.06;;;7.43;78.79
18500;BME280;9379;52.134;11.576;2023-04-26T04:41:55;100962.28;;;7.16;81.13
18500;BME280;9379;52.134;11.576;2023-04-26T04:44:22;100954.69;;;7.24;79.86
18500;BME280;9379;52.134;11.576;2023-04-26T04:46:51;100961.03;;;7.22;81.79
18500;BME280;9379;52.134;11.576;2023-04-26T04:49:19;100961.38;;;6.78;81.32
18500;BME280;9379;52.134;11.576;2023-04-26T04:51:46;100968.53;;;7.15;81.06
18500;BME280;9379;52.134;11.576;2023-04-26T04:54:14;100956.38;;;7.00;81.72
18500;BME280;9379;52.134;11.576;2023-04-26T04:56:42;100969.69;;;7.62;79.50
18500;BME280;9379;52.134;11.576;2023-04-26T04:59:09;100964.97;;;7.54;79.58
18500;BME280;9379;52.134;11.576;2023-04-26T05:01:36;100965.69;;;7.44;80.02
18500;BME280;9379;52.134;11.576;2023-04-26T05:04:03;100966.72;;;7.16;80.93
18500;BME280;9379;52.134;11.576;2023-04-26T05:06:32;100973.81;;;7.79;79.00
18500;BME280;9379;52.134;11.576;2023-04-26T05:08:59;100979.53;;;7.73;79.88
18500;BME280;9379;52.134;11.576;2023-04-26T05:11:26;100978.13;;;7.93;79.80
18500;BME280;9379;52.134;11.576;2023-04-26T05:13:53;100980.00;;;7.41;80.79
18500;BME280;9379;52.134;11.576;2023-04-26T05:16:19;100974.47;;;7.57;79.73
18500;BME280;9379;52.134;11.576;2023-04-26T05:18:46;100983.19;;;7.96;79.62
18500;BME280;9379;52.134;11.576;2023-04-26T05:21:13;100983.56;;;7.66;79.51
18500;BME280;9379;52.134;11.576;2023-04-26T05:23:41;100977.84;;;7.59;80.97
18500;BME280;9379;52.134;11.576;2023-04-26T05:26:11;100978.06;;;8.18;79.07
18500;BME280;9379;52.134;11.576;2023-04-26T05:28:38;100985.75;;;7.84;79.94
18500;BME280;9379;52.134;11.576;2023-04-26T05:31:05;100989.38;;;7.58;81.71
18500;BME280;9379;52.134;11.576;2023-04-26T05:33:32;100990.09;;;7.73;82.02
18500;BME280;9379;52.134;11.576;2023-04-26T05:35:59;100998.78;;;7.87;80.54
18500;BME280;9379;52.134;11.576;2023-04-26T05:38:25;100996.00;;;8.02;80.23
18500;BME280;9379;52.134;11.576;2023-04-26T05:40:54;100989.38;;;7.71;81.09
18500;BME280;9379;52.134;11.576;2023-04-26T05:43:21;100984.81;;;8.35;79.59
18500;BME280;9379;52.134;11.576;2023-04-26T05:45:50;100988.19;;;9.31;76.94
18500;BME280;9379;52.134;11.576;2023-04-26T05:48:18;101000.44;;;9.78;75.18
18500;BME280;9379;52.134;11.576;2023-04-26T05:50:45;100994.91;;;11.11;72.25
18500;BME280;9379;52.134;11.576;2023-04-26T05:53:12;100992.97;;;11.55;69.32
18500;BME280;9379;52.134;11.576;2023-04-26T05:55:39;101002.81;;;10.15;73.76
18500;BME280;9379;52.134;11.576;2023-04-26T05:58:08;100999.84;;;10.31;74.21
18500;BME280;9379;52.134;11.576;2023-04-26T06:00:36;101004.38;;;10.40;73.40
18500;BME280;9379;52.134;11.576;2023-04-26T06:03:03;100989.22;;;11.36;69.98
18500;BME280;9379;52.134;11.576;2023-04-26T06:05:30;100996.31;;;12.97;67.26
18500;BME280;9379;52.134;11.576;2023-04-26T06:07:57;100990.91;;;14.19;60.72
18500;BME280;9379;52.134;11.576;2023-04-26T06:10:24;100986.00;;;13.87;62.04
18500;BME280;9379;52.134;11.576;2023-04-26T06:12:51;101002.31;;;12.01;65.81
18500;BME280;9379;52.134;11.576;2023-04-26T06:15:19;101002.84;;;10.69;70.18
18500;BME280;9379;52.134;11.576;2023-04-26T06:17:46;101004.06;;;9.88;72.88
18500;BME280;9379;52.134;11.576;2023-04-26T06:20:12;101006.97;;;9.74;74.19
18500;BME280;9379;52.134;11.576;2023-04-26T06:22:39;101005.72;;;10.12;73.38
18500;BME280;9379;52.134;11.576;2023-04-26T06:25:07;100994.13;;;9.57;74.24
18500;BME280;9379;52.134;11.576;2023-04-26T06:27:33;101000.56;;;9.77;74.73
18500;BME280;9379;52.134;11.576;2023-04-26T06:30:00;101004.53;;;9.82;74.67
18500;BME280;9379;52.134;11.576;2023-04-26T06:32:29;101012.22;;;9.41;75.64
18500;BME280;9379;52.134;11.576;2023-04-26T06:34:55;101007.69;;;9.87;75.44
18500;BME280;9379;52.134;11.576;2023-04-26T06:37:22;101010.31;;;9.54;76.25
18500;BME280;9379;52.134;11.576;2023-04-26T06:39:49;101007.25;;;9.36;76.07
18500;BME280;9379;52.134;11.576;2023-04-26T06:42:16;101015.50;;;9.55;73.87
18500;BME280;9379;52.134;11.576;2023-04-26T06:44:43;101025.16;;;9.90;74.61
18500;BME280;9379;52.134;11.576;2023-04-26T06:47:09;101019.47;;;10.39;72.18
18500;BME280;9379;52.134;11.576;2023-04-26T06:49:38;101022.50;;;10.01;73.16
18500;BME280;9379;52.134;11.576;2023-04-26T06:52:05;101025.28;;;10.11;74.00
18500;BME280;9379;52.134;11.576;2023-04-26T06:54:32;101025.41;;;10.43;72.87
18500;BME280;9379;52.134;11.576;2023-04-26T06:56:59;101023.72;;;10.08;72.46
18500;BME280;9379;52.134;11.576;2023-04-26T06:59:26;101024.56;;;9.75;73.11
18500;BME280;9379;52.134;11.576;2023-04-26T07:01:53;101026.13;;;10.00;73.94
18500;BME280;9379;52.134;11.576;2023-04-26T07:04:20;101029.75;;;10.44;71.92
18500;BME280;9379;52.134;11.576;2023-04-26T07:06:48;101033.97;;;10.02;72.97
18500;BME280;9379;52.134;11.576;2023-04-26T07:09:15;101037.00;;;9.75;72.79
18500;BME280;9379;52.134;11.576;2023-04-26T07:11:44;101025.06;;;10.25;72.17
18500;BME280;9379;52.134;11.576;2023-04-26T07:14:11;101028.31;;;9.61;72.65
18500;BME280;9379;52.134;11.576;2023-04-26T07:16:38;101027.69;;;10.03;73.18
18500;BME280;9379;52.134;11.576;2023-04-26T07:19:05;101029.34;;;10.60;71.32
18500;BME280;9379;52.134;11.576;2023-04-26T07:21:32;101038.06;;;9.83;72.07
18500;BME280;9379;52.134;11.576;2023-04-26T07:24:00;101034.09;;;9.67;72.28
18500;BME280;9379;52.134;11.576;2023-04-26T07:26:26;101032.75;;;10.17;72.20
18500;BME280;9379;52.134;11.576;2023-04-26T07:28:54;101034.47;;;10.29;70.25
18500;BME280;9379;52.134;11.576;2023-04-26T07:31:20;101032.88;;;10.04;72.34
18500;BME280;9379;52.134;11.576;2023-04-26T07:33:47;101042.41;;;10.51;70.74
18500;BME280;9379;52.134;11.576;2023-04-26T07:36:14;101036.09;;;11.49;68.12
18500;BME280;9379;52.134;11.576;2023-04-26T07:38:43;101036.88;;;11.60;66.88
18500;BME280;9379;52.134;11.576;2023-04-26T07:41:11;101031.84;;;11.67;64.86
18500;BME280;9379;52.134;11.576;2023-04-26T07:43:40;101026.38;;;11.89;63.26
18500;BME280;9379;52.134;11.576;2023-04-26T07:46:07;101029.63;;;13.22;60.55
18500;BME280;9379;52.134;11.576;2023-04-26T07:48:34;101034.09;;;14.24;59.44
18500;BME280;9379;52.134;11.576;2023-04-26T07:51:06;101032.09;;;12.65;60.69
18500;BME280;9379;52.134;11.576;2023-04-26T07:53:33;101039.88;;;11.46;64.80
18500;BME280;9379;52.134;11.576;2023-04-26T07:56:02;101038.44;;;12.24;61.52
18500;BME280;9379;52.134;11.576;2023-04-26T07:58:31;101047.59;;;12.31;60.89
18500;BME280;9379;52.134;11.576;2023-04-26T08:00:58;101024.34;;;11.30;62.27
18500;BME280;9379;52.134;11.576;2023-04-26T08:03:25;101037.03;;;11.89;63.66
18500;BME280;9379;52.134;11.576;2023-04-26T08:05:52;101039.19;;;11.54;63.01
18500;BME280;9379;52.134;11.576;2023-04-26T08:08:19;101044.41;;;10.70;65.15
18500;BME280;9379;52.134;11.576;2023-04-26T08:10:46;101048.66;;;11.88;63.88
18500;BME280;9379;52.134;11.576;2023-04-26T08:13:13;101043.28;;;11.16;65.79
18500;BME280;9379;52.134;11.576;2023-04-26T08:15:41;101048.44;;;11.50;63.17
18500;BME280;9379;52.134;11.576;2023-04-26T08:18:08;101049.59;;;11.36;64.99
18500;BME280;9379;52.134;11.576;2023-04-26T08:20:35;101038.75;;;10.96;64.49
18500;BME280;9379;52.134;11.576;2023-04-26T08:23:01;101046.53;;;11.40;63.22
18500;BME280;9379;52.134;11.576;2023-04-26T08:25:28;101045.69;;;11.61;63.64
18500;BME280;9379;52.134;11.576;2023-04-26T08:27:55;101038.56;;;11.40;59.51
18500;BME280;9379;52.134;11.576;2023-04-26T08:30:22;101046.91;;;11.57;60.42
18500;BME280;9379;52.134;11.576;2023-04-26T08:32:50;101038.47;;;11.93;61.64
18500;BME280;9379;52.134;11.576;2023-04-26T08:35:17;101031.47;;;11.72;62.18
18500;BME280;9379;52.134;11.576;2023-04-26T08:37:44;101038.94;;;12.08;61.25
18500;BME280;9379;52.134;11.576;2023-04-26T08:40:11;101051.72;;;11.21;63.99
18500;BME280;9379;52.134;11.576;2023-04-26T08:42:40;101050.75;;;11.43;63.86
18500;BME280;9379;52.134;11.576;2023-04-26T08:45:09;101043.75;;;11.42;62.75
18500;BME280;9379;52.134;11.576;2023-04-26T08:47:41;101042.75;;;11.64;62.07
18500;BME280;9379;52.134;11.576;2023-04-26T08:50:12;101036.09;;;11.49;61.01
18500;BME280;9379;52.134;11.576;2023-04-26T08:52:41;101042.97;;;11.51;63.95
18500;BME280;9379;52.134;11.576;2023-04-26T08:55:09;101038.75;;;11.49;65.37
18500;BME280;9379;52.134;11.576;2023-04-26T08:57:37;101048.34;;;11.40;66.15
18500;BME280;9379;52.134;11.576;2023-04-26T09:00:06;101054.00;;;11.47;64.34
18500;BME280;9379;52.134;11.576;2023-04-26T09:02:37;101055.66;;;11.68;65.34
18500;BME280;9379;52.134;11.576;2023-04-26T09:05:06;101051.03;;;11.82;63.88
18500;BME280;9379;52.134;11.576;2023-04-26T09:07:39;101040.03;;;11.33;64.17
18500;BME280;9379;52.134;11.576;2023-04-26T09:10:08;101046.34;;;11.53;64.49
18500;BME280;9379;52.134;11.576;2023-04-26T09:12:35;101044.00;;;11.39;65.13
18500;BME280;9379;52.134;11.576;2023-04-26T09:15:02;101057.81;;;11.54;67.99
18500;BME280;9379;52.134;11.576;2023-04-26T09:17:32;101048.34;;;11.40;69.30
18500;BME280;9379;52.134;11.576;2023-04-26T09:20:09;101048.34;;;11.40;71.95
18500;BME280;9379;52.134;11.576;2023-04-26T09:22:44;101034.31;;;11.17;68.91
18500;BME280;9379;52.134;11.576;2023-04-26T09:25:12;101045.53;;;11.00;68.75
18500;BME280;9379;52.134;11.576;2023-04-26T09:27:40;101027.50;;;11.45;68.03
18500;BME280;9379;52.134;11.576;2023-04-26T09:30:10;101041.97;;;11.31;67.35
18500;BME280;9379;52.134;11.576;2023-04-26T09:32:45;101042.41;;;11.78;64.36
18500;BME280;9379;52.134;11.576;2023-04-26T09:35:25;101048.72;;;11.77;63.65
18500;BME280;9379;52.134;11.576;2023-04-26T09:37:58;101044.59;;;11.63;60.53
18500;BME280;9379;52.134;11.576;2023-04-26T09:40:27;101043.91;;;11.92;61.42
18500;BME280;9379;52.134;11.576;2023-04-26T09:42:59;101044.84;;;12.71;62.72
18500;BME280;9379;52.134;11.576;2023-04-26T09:45:26;101035.44;;;12.57;58.57
18500;BME280;9379;52.134;11.576;2023-04-26T09:47:53;101031.28;;;12.74;60.44
18500;BME280;9379;52.134;11.576;2023-04-26T09:50:28;101040.22;;;12.14;57.85
18500;BME280;9379;52.134;11.576;2023-04-26T09:52:57;101054.47;;;12.03;58.47
18500;BME280;9379;52.134;11.576;2023-04-26T09:55:26;101042.72;;;12.46;60.38
18500;BME280;9379;52.134;11.576;2023-04-26T09:57:53;101039.00;;;12.18;59.08
18500;BME280;9379;52.134;11.576;2023-04-26T10:00:20;101050.41;;;11.57;61.70
18500;BME280;9379;52.134;11.576;2023-04-26T10:02:48;101055.22;;;11.63;60.35
18500;BME280;9379;52.134;11.576;2023-04-26T10:05:15;101056.78;;;11.66;60.01
18500;BME280;9379;52.134;11.576;2023-04-26T10:07:43;101049.00;;;11.32;59.31
18500;BME280;9379;52.134;11.576;2023-04-26T10:10:12;101062.78;;;11.79;59.87
18500;BME280;9379;52.134;11.576;2023-04-26T10:12:40;101069.50;;;12.04;61.67
18500;BME280;9379;52.134;11.576;2023-04-26T10:15:09;101064.78;;;11.87;62.70
18500;BME280;9379;52.134;11.576;2023-04-26T10:17:36;101067.50;;;11.55;63.88
18500;BME280;9379;52.134;11.576;2023-04-26T10:20:06;101069.72;;;11.71;62.15
18500;BME280;9379;52.134;11.576;2023-04-26T10:22:38;101066.47;;;11.46;62.25
18500;BME280;9379;52.134;11.576;2023-04-26T10:25:08;101062.50;;;12.13;62.53
18500;BME280;9379;52.134;11.576;2023-04-26T10:27:54;101065.13;;;12.34;62.08
18500;BME280;9379;52.134;11.576;2023-04-26T10:30:21;101054.38;;;12.05;60.18
18500;BME280;9379;52.134;11.576;2023-04-26T10:33:14;101061.13;;;12.59;60.97
18500;BME280;9379;52.134;11.576;2023-04-26T10:36:03;101059.88;;;11.92;64.08
18500;BME280;9379;52.134;11.576;2023-04-26T10:38:30;101061.19;;;12.38;60.49
18500;BME280;9379;52.134;11.576;2023-04-26T10:41:27;101046.31;;;12.85;60.99
18500;BME280;9379;52.134;11.576;2023-04-26T10:43:57;101051.34;;;12.88;61.98
18500;BME280;9379;52.134;11.576;2023-04-26T10:46:35;101050.50;;;13.17;59.12
18500;BME280;9379;52.134;11.576;2023-04-26T10:49:16;101035.88;;;14.06;57.48
18500;BME280;9379;52.134;11.576;2023-04-26T10:52:07;101034.56;;;13.73;58.68
18500;BME280;9379;52.134;11.576;2023-04-26T10:54:46;101031.97;;;12.76;61.90
18500;BME280;9379;52.134;11.576;2023-04-26T10:57:13;101036.00;;;12.51;60.22
18500;BME280;9379;52.134;11.576;2023-04-26T11:00:24;101035.75;;;13.03;59.27
18500;BME280;9379;52.134;11.576;2023-04-26T11:02:54;101046.53;;;12.13;60.31
18500;BME280;9379;52.134;11.576;2023-04-26T11:05:40;101040.50;;;11.80;61.33
18500;BME280;9379;52.134;11.576;2023-04-26T11:08:14;101045.69;;;11.61;63.54
18500;BME280;9379;52.134;11.576;2023-04-26T11:10:42;101052.78;;;12.02;60.96
18500;BME280;9379;52.134;11.576;2023-04-26T11:13:09;101037.25;;;12.07;59.37
18500;BME280;9379;52.134;11.576;2023-04-26T11:15:39;101042.69;;;11.54;57.80
18500;BME280;9379;52.134;11.576;2023-04-26T11:18:06;101041.13;;;11.93;57.58
18500;BME280;9379;52.134;11.576;2023-04-26T11:20:33;101042.28;;;12.01;58.01
18500;BME280;9379;52.134;11.576;2023-04-26T11:23:00;101037.72;;;12.22;57.58
18500;BME280;9379;52.134;11.576;2023-04-26T11:25:28;101041.00;;;11.32;59.66
18500;BME280;9379;52.134;11.576;2023-04-26T11:27:58;101052.63;;;11.52;63.91
18500;BME280;9379;52.134;11.576;2023-04-26T11:30:27;101045.03;;;11.27;62.28
18500;BME280;9379;52.134;11.576;2023-04-26T11:35:46;101045.63;;;12.03;62.20
18500;BME280;9379;52.134;11.576;2023-04-26T11:38:23;101039.75;;;11.78;59.08
18500;BME280;9379;52.134;11.576;2023-04-26T11:41:16;101036.00;;;12.11;61.09
18500;BME280;9379;52.134;11.576;2023-04-26T11:43:44;101030.06;;;12.29;57.21
18500;BME280;9379;52.134;11.576;2023-04-26T11:46:11;101035.88;;;12.82;59.29
18500;BME280;9379;52.134;11.576;2023-04-26T11:48:38;101038.31;;;12.35;60.04
18500;BME280;9379;52.134;11.576;2023-04-26T11:51:07;101036.50;;;11.95;59.80
18500;BME280;9379;52.134;11.576;2023-04-26T11:53:36;101035.06;;;11.82;59.66
18500;BME280;9379;52.134;11.576;2023-04-26T11:56:04;101043.06;;;11.91;61.07
18500;BME280;9379;52.134;11.576;2023-04-26T11:58:43;101035.59;;;12.56;59.81
18500;BME280;9379;52.134;11.576;2023-04-26T12:01:19;101040.00;;;12.86;59.88
18500;BME280;9379;52.134;11.576;2023-04-26T12:03:49;101054.88;;;12.98;60.64
18500;BME280;9379;52.134;11.576;2023-04-26T12:06:18;101047.13;;;12.95;58.06
18500;BME280;9379;52.134;11.576;2023-04-26T12:08:49;101043.50;;;13.45;58.13
18500;BME280;9379;52.134;11.576;2023-04-26T12:11:17;101042.63;;;12.76;57.32
18500;BME280;9379;52.134;11.576;2023-04-26T12:13:44;101054.72;;;12.80;56.53
18500;BME280;9379;52.134;11.576;2023-04-26T12:16:22;101058.31;;;12.60;58.21
18500;BME280;9379;52.134;11.576;2023-04-26T12:18:53;101055.00;;;12.77;57.55
18500;BME280;9379;52.134;11.576;2023-04-26T12:21:22;101046.56;;;11.82;56.33
18500;BME280;9379;52.134;11.576;2023-04-26T12:23:50;101057.78;;;11.86;56.84
18500;BME280;9379;52.134;11.576;2023-04-26T12:26:17;101061.19;;;11.77;58.41
18500;BME280;9379;52.134;11.576;2023-04-26T12:28:44;101058.66;;;11.96;56.23
18500;BME280;9379;52.134;11.576;2023-04-26T12:31:11;101049.16;;;12.43;57.46
18500;BME280;9379;52.134;11.576;2023-04-26T12:33:38;101056.03;;;12.46;55.89
18500;BME280;9379;52.134;11.576;2023-04-26T12:36:08;101045.81;;;12.61;56.04
18500;BME280;9379;52.134;11.576;2023-04-26T12:38:37;101046.84;;;12.19;54.93
18500;BME280;9379;52.134;11.576;2023-04-26T12:41:05;101053.38;;;12.46;55.79
18500;BME280;9379;52.134;11.576;2023-04-26T12:43:31;101046.41;;;12.83;56.19
18500;BME280;9379;52.134;11.576;2023-04-26T12:46:00;101019.31;;;13.46;53.27
18500;BME280;9379;52.134;11.576;2023-04-26T12:48:27;101016.41;;;14.41;53.73
18500;BME280;9379;52.134;11.576;2023-04-26T12:50:56;101006.56;;;14.14;51.40
18500;BME280;9379;52.134;11.576;2023-04-26T12:53:25;101023.63;;;14.31;52.59
18500;BME280;9379;52.134;11.576;2023-04-26T12:55:54;101037.88;;;14.59;52.82
18500;BME280;9379;52.134;11.576;2023-04-26T12:58:21;101044.84;;;14.15;51.94
18500;BME280;9379;52.134;11.576;2023-04-26T13:00:48;101009.06;;;13.41;55.04
18500;BME280;9379;52.134;11.576;2023-04-26T13:03:15;101043.50;;;13.35;52.55
18500;BME280;9379;52.134;11.576;2023-04-26T13:05:42;101022.47;;;12.34;50.88